Terminal Aerodrome Forecast
Issued by NWS

Home | Current Version | Previous Version | Text Only | Print | Product List | Glossary Off
Versions: 1 2 3 4 5 6 7 8 9 10 11 12 13 14 15 16 17 18

888
FTUS43 KICT 242342
TAFCNU
TAF
KCNU 242342Z 2500/2524 16015KT P6SM SCT050 OVC250
     FM250200 16008KT P6SM VCTS BKN040CB
     FM250500 VRB05KT 5SM -SHRA VCTS SCT025 BKN050CB
      TEMPO 2508/2512 2SM +TSRA BKN025CB
     FM251500 30010KT P6SM -SHRA VCTS SCT015 OVC035CB
     FM252000 35010KT P6SM SCT050=

USA.gov is the U.S. government's official web portal to all federal, state and local government web resources and services.